createdAt,value
2018-09-02T00:01:26.806Z,101922.96
2018-09-02T00:03:55.030Z,101914.69
2018-09-02T00:06:23.226Z,101923.73
2018-09-02T00:08:52.512Z,101910.78
2018-09-02T00:11:20.713Z,101917.31
2018-09-02T00:13:48.934Z,101911.56
2018-09-02T00:16:17.134Z,101912.91
2018-09-02T00:18:45.353Z,101917.34
2018-09-02T00:21:13.787Z,101910.29
2018-09-02T00:23:41.994Z,101906.81
2018-09-02T00:26:10.218Z,101906.84
2018-09-02T00:28:38.422Z,101913.23
2018-09-02T00:31:06.653Z,101909.30
2018-09-02T00:33:34.853Z,101910.68
2018-09-02T00:36:03.069Z,101911.84
2018-09-02T00:38:31.269Z,101909.71
2018-09-02T00:40:59.483Z,101913.95
2018-09-02T00:43:27.686Z,101917.87
2018-09-02T00:45:55.892Z,101907.50
2018-09-02T00:48:24.105Z,101916.08
2018-09-02T00:50:52.318Z,101916.98
2018-09-02T00:53:20.509Z,101914.30
2018-09-02T00:55:48.725Z,101906.89
2018-09-02T00:58:17.038Z,101908.66
2018-09-02T01:00:45.271Z,101912.91
2018-09-02T01:03:13.477Z,101912.06
2018-09-02T01:05:41.690Z,101915.50
2018-09-02T01:08:09.910Z,101917.11
2018-09-02T01:10:38.115Z,101919.85
2018-09-02T01:13:06.663Z,101926.39
2018-09-02T01:15:34.865Z,101921.49
2018-09-02T01:18:03.087Z,101916.21
2018-09-02T01:20:31.290Z,101927.49
2018-09-02T01:22:59.521Z,101922.34
2018-09-02T01:25:27.727Z,101926.22
2018-09-02T01:27:55.950Z,101925.77
2018-09-02T01:30:24.166Z,101927.08
2018-09-02T01:32:52.362Z,101921.11
2018-09-02T01:35:25.745Z,101919.78
2018-09-02T01:37:53.950Z,101924.21
2018-09-02T01:40:22.162Z,101929.09
2018-09-02T01:42:50.381Z,101933.62
2018-09-02T01:45:18.630Z,101920.59
2018-09-02T01:47:47.013Z,101924.75
2018-09-02T01:50:15.228Z,101920.84
2018-09-02T01:52:43.447Z,101918.80
2018-09-02T01:55:11.654Z,101922.21
2018-09-02T01:57:39.965Z,101922.69
2018-09-02T02:00:08.186Z,101921.00
2018-09-02T02:02:36.701Z,101914.84
2018-09-02T02:05:04.942Z,101918.58
2018-09-02T02:07:33.149Z,101913.53
2018-09-02T02:10:01.354Z,101915.15
2018-09-02T02:12:29.566Z,101915.09
2018-09-02T02:14:57.772Z,101917.00
2018-09-02T02:17:25.997Z,101907.40
2018-09-02T02:19:54.231Z,101908.37
2018-09-02T02:22:22.446Z,101908.42
2018-09-02T02:24:50.645Z,101906.47
2018-09-02T02:27:18.870Z,101905.71
2018-09-02T02:29:47.106Z,101904.69
2018-09-02T02:32:15.302Z,101906.01
2018-09-02T02:34:43.518Z,101909.23
2018-09-02T02:37:11.728Z,101902.23
2018-09-02T02:39:39.929Z,101893.26
2018-09-02T02:42:08.122Z,101900.54
2018-09-02T02:44:36.358Z,101893.17
2018-09-02T02:47:04.561Z,101895.16
2018-09-02T02:49:32.786Z,101889.77
2018-09-02T02:52:00.986Z,101892.25
2018-09-02T02:54:29.198Z,101891.24
2018-09-02T02:56:57.430Z,101891.25
2018-09-02T02:59:25.638Z,101891.89
2018-09-02T03:01:53.849Z,101888.89
2018-09-02T03:04:22.062Z,101886.06
2018-09-02T03:06:50.261Z,101888.73
2018-09-02T03:09:18.481Z,101882.50
2018-09-02T03:11:46.748Z,101882.77
2018-09-02T03:14:15.007Z,101873.59
2018-09-02T03:16:43.209Z,101869.98
2018-09-02T03:19:11.422Z,101872.11
2018-09-02T03:21:39.743Z,101873.63
2018-09-02T03:24:07.946Z,101873.30
2018-09-02T03:26:36.162Z,101878.14
2018-09-02T03:29:04.379Z,101883.98
2018-09-02T03:31:32.594Z,101878.35
2018-09-02T03:34:00.798Z,101880.23
2018-09-02T03:36:29.026Z,101873.23
2018-09-02T03:38:57.234Z,101878.56
2018-09-02T03:41:25.446Z,101871.11
2018-09-02T03:43:53.662Z,101866.86
2018-09-02T03:46:21.874Z,101867.78
2018-09-02T03:48:50.093Z,101859.73
2018-09-02T03:51:18.309Z,101864.45
2018-09-02T03:53:46.536Z,101861.81
2018-09-02T03:56:14.713Z,101860.75
2018-09-02T03:58:42.941Z,101867.64
2018-09-02T04:01:11.137Z,101856.35
2018-09-02T04:03:39.362Z,101859.93
2018-09-02T04:06:07.576Z,101860.71
2018-09-02T04:08:35.871Z,101861.78
2018-09-02T04:11:04.099Z,101858.30
2018-09-02T04:13:32.311Z,101855.93
2018-09-02T04:16:00.506Z,101859.98
2018-09-02T04:18:28.754Z,101859.38
2018-09-02T04:20:56.925Z,101860.61
2018-09-02T04:23:25.154Z,101867.16
2018-09-02T04:25:53.348Z,101867.78
2018-09-02T04:28:21.561Z,101858.66
2018-09-02T04:30:49.783Z,101868.73
2018-09-02T04:33:17.977Z,101865.69
2018-09-02T04:35:46.190Z,101865.77
2018-09-02T04:38:14.388Z,101866.76
2018-09-02T04:40:42.610Z,101865.19
2018-09-02T04:43:10.815Z,101865.22
2018-09-02T04:45:39.036Z,101856.84
2018-09-02T04:48:07.280Z,101862.72
2018-09-02T04:50:35.492Z,101860.02
2018-09-02T04:53:03.706Z,101851.05
2018-09-02T04:55:31.921Z,101852.70
2018-09-02T04:58:00.123Z,101851.60
2018-09-02T05:00:28.383Z,101848.19
2018-09-02T05:02:56.546Z,101854.45
2018-09-02T05:05:24.742Z,101846.02
2018-09-02T05:07:52.949Z,101849.42
2018-09-02T05:10:21.217Z,101849.63
2018-09-02T05:12:49.470Z,101846.86
2018-09-02T05:15:17.670Z,101848.47
2018-09-02T05:17:45.897Z,101846.79
2018-09-02T05:20:14.115Z,101856.00
2018-09-02T05:22:42.354Z,101859.98
2018-09-02T05:25:10.574Z,101852.76
2018-09-02T05:27:38.846Z,101858.99
2018-09-02T05:30:07.157Z,101859.64
2018-09-02T05:32:35.394Z,101851.99
2018-09-02T05:35:03.799Z,101861.03
2018-09-02T05:37:32.026Z,101855.09
2018-09-02T05:40:00.229Z,101854.72
2018-09-02T05:42:28.455Z,101862.95
2018-09-02T05:44:56.671Z,101859.48
2018-09-02T05:47:24.874Z,101861.78
2018-09-02T05:49:53.090Z,101862.39
2018-09-02T05:52:21.303Z,101855.14
2018-09-02T05:54:49.518Z,101860.27
2018-09-02T05:57:17.715Z,101855.81
2018-09-02T05:59:45.935Z,101860.14
2018-09-02T06:02:14.186Z,101858.05
2018-09-02T06:04:42.401Z,101860.59
2018-09-02T06:07:10.602Z,101856.34
2018-09-02T06:09:38.819Z,101863.73
2018-09-02T06:12:07.045Z,101861.27
2018-09-02T06:14:35.282Z,101857.91
2018-09-02T06:17:03.525Z,101862.72
2018-09-02T06:19:31.742Z,101858.36
2018-09-02T06:21:59.967Z,101861.98
2018-09-02T06:24:28.162Z,101859.94
2018-09-02T06:26:56.384Z,101856.61
2018-09-02T06:29:24.580Z,101861.54
2018-09-02T06:31:52.895Z,101861.25
2018-09-02T06:34:22.190Z,101862.26
2018-09-02T06:36:50.489Z,101869.31
2018-09-02T06:39:18.731Z,101864.55
2018-09-02T06:41:46.960Z,101864.02
2018-09-02T06:44:15.173Z,101866.41
2018-09-02T06:46:43.397Z,101861.66
2018-09-02T06:49:11.709Z,101857.82
2018-09-02T06:51:39.934Z,101860.11
2018-09-02T06:54:08.222Z,101860.94
2018-09-02T06:56:36.444Z,101858.76
2018-09-02T06:59:04.720Z,101858.06
2018-09-02T07:01:32.931Z,101855.50
2018-09-02T07:04:01.146Z,101847.28
2018-09-02T07:06:31.433Z,101842.84
2018-09-02T07:08:59.655Z,101839.41
2018-09-02T07:11:27.877Z,101834.86
2018-09-02T07:13:56.100Z,101838.58
2018-09-02T07:16:24.338Z,101832.59
2018-09-02T07:18:52.595Z,101830.82
2018-09-02T07:21:20.810Z,101833.52
2018-09-02T07:23:49.029Z,101826.96
2018-09-02T07:26:17.273Z,101827.03
2018-09-02T07:28:45.684Z,101833.20
2018-09-02T07:31:14.068Z,101831.81
2018-09-02T07:33:43.101Z,101827.31
2018-09-02T07:36:11.279Z,101830.19
2018-09-02T07:38:39.546Z,101817.56
2018-09-02T07:41:08.848Z,101809.70
2018-09-02T07:43:37.217Z,101815.38
2018-09-02T07:46:05.439Z,101821.45
2018-09-02T07:48:33.661Z,101815.29
2018-09-02T07:51:01.898Z,101813.70
2018-09-02T07:53:31.105Z,101805.14
2018-09-02T07:55:59.329Z,101804.81
2018-09-02T07:58:27.552Z,101807.14
2018-09-02T08:00:55.820Z,101804.33
2018-09-02T08:03:24.077Z,101800.20
2018-09-02T08:05:52.425Z,101802.85
2018-09-02T08:08:20.621Z,101804.92
2018-09-02T08:10:48.837Z,101798.04
2018-09-02T08:13:17.378Z,101799.52
2018-09-02T08:15:45.633Z,101802.94
2018-09-02T08:18:13.850Z,101789.48
2018-09-02T08:20:42.110Z,101784.27
2018-09-02T08:23:10.328Z,101785.17
2018-09-02T08:25:38.562Z,101792.14
2018-09-02T08:28:06.793Z,101783.41
2018-09-02T08:30:35.042Z,101781.84
2018-09-02T08:33:03.454Z,101777.88
2018-09-02T08:35:31.638Z,101783.89
2018-09-02T08:37:59.937Z,101776.81
2018-09-02T08:40:28.245Z,101771.39
2018-09-02T08:42:57.750Z,101769.47
2018-09-02T08:45:26.021Z,101766.18
2018-09-02T08:47:54.330Z,101756.85
2018-09-02T08:50:23.642Z,101765.91
2018-09-02T08:52:51.817Z,101754.69
2018-09-02T08:55:20.022Z,101759.28
2018-09-02T08:57:49.362Z,101754.88
2018-09-02T09:00:18.378Z,101756.70
2018-09-02T09:02:47.834Z,101754.77
2018-09-02T09:05:16.109Z,101750.89
2018-09-02T09:07:44.530Z,101746.24
2018-09-02T09:10:12.577Z,101758.13
2018-09-02T09:12:40.806Z,101748.02
2018-09-02T09:15:09.023Z,101749.19
2018-09-02T09:17:37.219Z,101738.91
2018-09-02T09:20:05.924Z,101735.11
2018-09-02T09:22:34.182Z,101730.54
2018-09-02T09:25:02.447Z,101730.58
2018-09-02T09:27:30.596Z,101730.34
2018-09-02T09:29:58.818Z,101728.38
2018-09-02T09:32:27.076Z,101720.56
2018-09-02T09:34:55.263Z,101721.91
2018-09-02T09:37:23.465Z,101725.84
2018-09-02T09:39:51.669Z,101721.87
2018-09-02T09:42:19.883Z,101712.98
2018-09-02T09:44:48.111Z,101718.24
2018-09-02T09:47:16.312Z,101711.64
2018-09-02T09:49:44.545Z,101709.88
2018-09-02T09:52:12.813Z,101711.22
2018-09-02T09:54:41.055Z,101706.55
2018-09-02T09:57:09.257Z,101706.52
2018-09-02T09:59:38.573Z,101706.20
2018-09-02T10:02:06.809Z,101708.71
2018-09-02T10:04:35.005Z,101692.97
2018-09-02T10:07:03.237Z,101686.73
2018-09-02T10:09:31.437Z,101695.83
2018-09-02T10:11:59.668Z,101682.31
2018-09-02T10:14:27.886Z,101678.70
2018-09-02T10:16:56.129Z,101668.53
2018-09-02T10:19:24.353Z,101675.24
2018-09-02T10:21:52.666Z,101674.23
2018-09-02T10:24:21.001Z,101667.97
2018-09-02T10:26:49.211Z,101664.66
2018-09-02T10:29:17.405Z,101658.47
2018-09-02T10:31:45.625Z,101657.58
2018-09-02T10:34:13.862Z,101651.19
2018-09-02T10:36:42.167Z,101647.78
2018-09-02T10:39:10.637Z,101644.51
2018-09-02T10:41:38.951Z,101641.22
2018-09-02T10:44:07.154Z,101641.25
2018-09-02T10:46:35.409Z,101634.52
2018-09-02T10:49:03.678Z,101636.75
2018-09-02T10:51:32.980Z,101634.86
2018-09-02T10:54:02.300Z,101633.95
2018-09-02T10:56:30.502Z,101633.14
2018-09-02T10:58:58.752Z,101628.05
2018-09-02T11:01:27.052Z,101623.84
2018-09-02T11:03:55.279Z,101631.98
2018-09-02T11:06:23.533Z,101623.59
2018-09-02T11:08:51.758Z,101623.40
2018-09-02T11:11:19.990Z,101614.20
2018-09-02T11:13:48.308Z,101618.81
2018-09-02T11:16:17.480Z,101617.27
2018-09-02T11:18:45.715Z,101615.57
2018-09-02T11:21:13.958Z,101612.84
2018-09-02T11:23:42.186Z,101611.25
2018-09-02T11:26:10.395Z,101615.72
2018-09-02T11:28:38.598Z,101611.06
2018-09-02T11:31:06.835Z,101609.25
2018-09-02T11:33:35.062Z,101607.96
2018-09-02T11:36:03.297Z,101607.16
2018-09-02T11:38:31.550Z,101602.97
2018-09-02T11:40:59.763Z,101598.28
2018-09-02T11:43:27.964Z,101597.11
2018-09-02T11:45:56.190Z,101593.20
2018-09-02T11:48:24.390Z,101594.53
2018-09-02T11:50:52.601Z,101594.48
2018-09-02T11:53:20.797Z,101591.50
2018-09-02T11:55:49.177Z,101590.41
2018-09-02T11:58:17.385Z,101590.08
2018-09-02T12:00:45.853Z,101579.89
2018-09-02T12:03:14.058Z,101586.33
2018-09-02T12:05:42.366Z,101584.44
2018-09-02T12:08:10.634Z,101581.70
2018-09-02T12:10:38.865Z,101576.61
2018-09-02T12:13:07.100Z,101576.80
2018-09-02T12:15:35.352Z,101577.50
2018-09-02T12:18:03.594Z,101581.30
2018-09-02T12:20:31.901Z,101576.98
2018-09-02T12:23:00.145Z,101569.44
2018-09-02T12:25:28.355Z,101566.27
2018-09-02T12:27:56.561Z,101571.91
2018-09-02T12:30:24.763Z,101568.39
2018-09-02T12:32:52.988Z,101566.88
2018-09-02T12:35:21.215Z,101576.11
2018-09-02T12:37:50.549Z,101574.14
2018-09-02T12:40:18.772Z,101572.06
2018-09-02T12:42:47.043Z,101568.92
2018-09-02T12:45:15.285Z,101567.80
2018-09-02T12:47:43.647Z,101566.73
2018-09-02T12:50:11.823Z,101562.31
2018-09-02T12:52:40.070Z,101559.78
2018-09-02T12:55:08.325Z,101558.30
2018-09-02T12:57:36.587Z,101552.28
2018-09-02T13:00:04.837Z,101549.27
2018-09-02T13:02:33.061Z,101551.72
2018-09-02T13:05:01.269Z,101553.12
2018-09-02T13:07:29.514Z,101551.03
2018-09-02T13:09:57.757Z,101544.83
2018-09-02T13:12:25.994Z,101548.42
2018-09-02T13:14:54.192Z,101546.80
2018-09-02T13:17:22.474Z,101550.86
2018-09-02T13:19:50.683Z,101540.70
2018-09-02T13:22:18.885Z,101543.17
2018-09-02T13:24:47.233Z,101543.73
2018-09-02T13:27:15.341Z,101537.87
2018-09-02T13:29:43.561Z,101531.00
2018-09-02T13:32:11.757Z,101529.07
2018-09-02T13:34:39.990Z,101519.39
2018-09-02T13:37:08.189Z,101525.70
2018-09-02T13:39:36.410Z,101523.93
2018-09-02T13:42:04.698Z,101533.42
2018-09-02T13:44:32.928Z,101517.15
2018-09-02T13:47:01.139Z,101524.84
2018-09-02T13:49:29.465Z,101525.82
2018-09-02T13:51:57.710Z,101515.34
2018-09-02T13:54:25.922Z,101519.77
2018-09-02T13:56:54.181Z,101522.95
2018-09-02T13:59:22.406Z,101509.45
2018-09-02T14:01:50.631Z,101509.97
2018-09-02T14:04:18.846Z,101508.37
2018-09-02T14:06:47.070Z,101500.59
2018-09-02T14:09:15.280Z,101499.14
2018-09-02T14:11:43.493Z,101503.33
2018-09-02T14:14:11.735Z,101493.06
2018-09-02T14:16:39.942Z,101496.83
2018-09-02T14:19:08.158Z,101495.34
2018-09-02T14:21:36.390Z,101493.37
2018-09-02T14:24:04.670Z,101492.38
2018-09-02T14:26:32.902Z,101490.46
2018-09-02T14:29:01.133Z,101484.69
2018-09-02T14:31:29.475Z,101487.05
2018-09-02T14:33:58.490Z,101476.79
2018-09-02T14:36:26.765Z,101470.52
2018-09-02T14:38:54.990Z,101478.59
2018-09-02T14:41:23.294Z,101473.53
2018-09-02T14:43:51.521Z,101477.80
2018-09-02T14:46:19.713Z,101468.98
2018-09-02T14:48:47.942Z,101468.27
2018-09-02T14:51:16.161Z,101459.54
2018-09-02T14:53:44.417Z,101466.89
2018-09-02T14:56:12.618Z,101457.65
2018-09-02T14:58:40.866Z,101460.63
2018-09-02T15:01:09.073Z,101461.05
2018-09-02T15:03:37.339Z,101458.48
2018-09-02T15:06:05.615Z,101460.75
2018-09-02T15:08:33.843Z,101464.35
2018-09-02T15:11:02.081Z,101456.97
2018-09-02T15:13:30.545Z,101460.00
2018-09-02T15:15:58.785Z,101465.67
2018-09-02T15:18:27.026Z,101465.41
2018-09-02T15:20:55.282Z,101455.50
2018-09-02T15:23:23.524Z,101455.73
2018-09-02T15:25:51.846Z,101452.17
2018-09-02T15:28:20.074Z,101459.17
2018-09-02T15:30:48.289Z,101455.95
2018-09-02T15:33:16.508Z,101455.02
2018-09-02T15:35:44.701Z,101448.92
2018-09-02T15:38:12.922Z,101448.33
2018-09-02T15:40:41.143Z,101455.42
2018-09-02T15:43:09.349Z,101442.55
2018-09-02T15:45:37.618Z,101446.92
2018-09-02T15:48:05.846Z,101439.89
2018-09-02T15:50:34.055Z,101444.70
2018-09-02T15:53:02.270Z,101442.23
2018-09-02T15:55:30.526Z,101434.64
2018-09-02T15:57:58.746Z,101431.77
2018-09-02T16:00:26.945Z,101436.16
2018-09-02T16:02:55.166Z,101430.48
2018-09-02T16:05:23.812Z,101433.40
2018-09-02T16:07:52.030Z,101431.66
2018-09-02T16:10:20.227Z,101437.52
2018-09-02T16:12:48.422Z,101431.36
2018-09-02T16:15:16.661Z,101432.38
2018-09-02T16:17:44.868Z,101430.64
2018-09-02T16:20:13.138Z,101427.35
2018-09-02T16:22:41.274Z,101428.33
2018-09-02T16:25:09.490Z,101431.66
2018-09-02T16:27:37.685Z,101428.33
2018-09-02T16:30:06.417Z,101426.03
2018-09-02T16:32:34.795Z,101425.88
2018-09-02T16:35:03.390Z,101419.68
2018-09-02T16:37:31.674Z,101430.15
2018-09-02T16:39:59.888Z,101432.11
2018-09-02T16:42:28.785Z,101423.87
2018-09-02T16:44:57.042Z,101423.22
2018-09-02T16:47:25.250Z,101431.61
2018-09-02T16:49:53.544Z,101429.08
2018-09-02T16:52:22.285Z,101415.39
2018-09-02T16:54:50.489Z,101424.67
2018-09-02T16:57:18.713Z,101415.28
2018-09-02T16:59:46.936Z,101410.03
2018-09-02T17:02:15.190Z,101403.42
2018-09-02T17:04:45.422Z,101400.66
2018-09-02T17:07:13.638Z,101397.45
2018-09-02T17:09:41.837Z,101399.11
2018-09-02T17:12:10.210Z,101399.37
2018-09-02T17:14:38.253Z,101398.57
2018-09-02T17:17:06.501Z,101403.13
2018-09-02T17:19:38.909Z,101406.66
2018-09-02T17:22:07.130Z,101403.97
2018-09-02T17:24:35.387Z,101400.50
2018-09-02T17:27:03.618Z,101396.16
2018-09-02T17:29:31.835Z,101395.22
2018-09-02T17:32:01.628Z,101391.81
2018-09-02T17:34:29.905Z,101393.48
2018-09-02T17:36:58.251Z,101393.36
2018-09-02T17:39:26.500Z,101393.09
2018-09-02T17:41:54.706Z,101383.75
2018-09-02T17:44:22.913Z,101388.41
2018-09-02T17:46:51.111Z,101384.09
2018-09-02T17:49:19.433Z,101394.62
2018-09-02T17:51:47.717Z,101398.76
2018-09-02T17:54:16.102Z,101397.95
2018-09-02T17:56:45.395Z,101405.08
2018-09-02T17:59:13.726Z,101402.61
2018-09-02T18:01:41.951Z,101404.97
2018-09-02T18:04:10.198Z,101401.36
2018-09-02T18:06:38.438Z,101398.06
2018-09-02T18:09:08.815Z,101405.56
2018-09-02T18:11:37.102Z,101406.77
2018-09-02T18:14:05.346Z,101406.77
2018-09-02T18:16:33.705Z,101409.77
2018-09-02T18:19:01.926Z,101423.67
2018-09-02T18:21:30.140Z,101414.53
2018-09-02T18:23:58.340Z,101424.39
2018-09-02T18:26:26.598Z,101424.35
2018-09-02T18:28:54.791Z,101426.93
2018-09-02T18:31:23.374Z,101425.70
2018-09-02T18:33:51.578Z,101428.83
2018-09-02T18:36:19.828Z,101428.80
2018-09-02T18:38:48.019Z,101427.38
2018-09-02T18:41:16.235Z,101437.27
2018-09-02T18:43:44.445Z,101434.39
2018-09-02T18:46:12.857Z,101436.00
2018-09-02T18:48:41.114Z,101437.31
2018-09-02T18:51:09.321Z,101435.39
2018-09-02T18:53:37.526Z,101438.41
2018-09-02T18:56:05.830Z,101443.82
2018-09-02T18:58:34.085Z,101441.66
2018-09-02T19:01:02.313Z,101439.06
2018-09-02T19:03:30.562Z,101438.80
2018-09-02T19:05:58.766Z,101444.48
2018-09-02T19:08:26.974Z,101441.27
2018-09-02T19:10:55.187Z,101435.30
2018-09-02T19:13:23.423Z,101431.11
2018-09-02T19:15:51.615Z,101430.30
2018-09-02T19:18:19.831Z,101429.78
2018-09-02T19:20:48.061Z,101434.66
2018-09-02T19:23:16.266Z,101431.08
2018-09-02T19:25:44.478Z,101433.63
2018-09-02T19:28:12.679Z,101432.33
2018-09-02T19:30:40.922Z,101437.03
2018-09-02T19:33:09.126Z,101432.48
2018-09-02T19:35:37.358Z,101428.79
2018-09-02T19:38:05.576Z,101429.78
2018-09-02T19:40:33.804Z,101430.42
2018-09-02T19:43:02.008Z,101431.30
2018-09-02T19:45:30.233Z,101429.59
2018-09-02T19:47:58.478Z,101424.02
2018-09-02T19:50:26.681Z,101425.64
2018-09-02T19:52:54.909Z,101422.45
2018-09-02T19:55:23.213Z,101414.79
2018-09-02T19:57:51.517Z,101409.00
2018-09-02T20:00:19.720Z,101414.05
2018-09-02T20:02:48.773Z,101413.50
2018-09-02T20:05:16.994Z,101408.31
2018-09-02T20:07:45.214Z,101400.58
2018-09-02T20:10:13.457Z,101406.94
2018-09-02T20:12:41.665Z,101405.56
2018-09-02T20:15:09.922Z,101410.32
2018-09-02T20:17:38.148Z,101406.03
2018-09-02T20:20:06.484Z,101395.48
2018-09-02T20:22:34.728Z,101399.72
2018-09-02T20:25:02.946Z,101397.34
2018-09-02T20:27:31.239Z,101401.39
2018-09-02T20:29:59.622Z,101398.42
2018-09-02T20:32:27.885Z,101400.95
2018-09-02T20:34:56.099Z,101390.67
2018-09-02T20:37:24.344Z,101397.56
2018-09-02T20:39:52.614Z,101396.42
2018-09-02T20:42:20.865Z,101390.52
2018-09-02T20:44:49.181Z,101388.23
2018-09-02T20:47:17.395Z,101385.70
2018-09-02T20:49:45.607Z,101385.50
2018-09-02T20:52:13.835Z,101383.25
2018-09-02T20:54:42.049Z,101388.34
2018-09-02T20:57:10.262Z,101394.73
2018-09-02T20:59:38.517Z,101390.47
2018-09-02T21:02:07.133Z,101391.73
2018-09-02T21:04:35.374Z,101393.95
2018-09-02T21:07:03.619Z,101390.41
2018-09-02T21:09:31.837Z,101390.33
2018-09-02T21:12:00.064Z,101392.12
2018-09-02T21:14:28.278Z,101397.90
2018-09-02T21:16:56.547Z,101390.72
2018-09-02T21:19:24.751Z,101390.72
2018-09-02T21:21:53.038Z,101387.83
2018-09-02T21:24:21.237Z,101386.69
2018-09-02T21:26:49.459Z,101393.03
2018-09-02T21:29:17.672Z,101392.89
2018-09-02T21:31:45.893Z,101385.03
2018-09-02T21:34:14.094Z,101381.59
2018-09-02T21:36:42.302Z,101380.91
2018-09-02T21:39:10.525Z,101372.96
2018-09-02T21:41:38.748Z,101378.68
2018-09-02T21:44:07.021Z,101376.32
2018-09-02T21:46:35.250Z,101368.92
2018-09-02T21:49:03.629Z,101366.47
2018-09-02T21:51:31.862Z,101361.83
2018-09-02T21:54:00.075Z,101371.95
2018-09-02T21:56:28.290Z,101372.45
2018-09-02T21:58:56.513Z,101368.92
2018-09-02T22:01:24.714Z,101367.35
2018-09-02T22:03:52.945Z,101368.16
2018-09-02T22:06:21.144Z,101362.95
2018-09-02T22:08:49.387Z,101362.00
2018-09-02T22:11:17.593Z,101363.48
2018-09-02T22:13:45.802Z,101362.14
2018-09-02T22:16:14.006Z,101359.37
2018-09-02T22:18:42.241Z,101364.77
2018-09-02T22:21:10.477Z,101358.52
2018-09-02T22:23:38.678Z,101354.83
2018-09-02T22:26:06.915Z,101350.00
2018-09-02T22:28:35.125Z,101353.95
2018-09-02T22:31:03.341Z,101355.16
2018-09-02T22:33:31.738Z,101358.95
2018-09-02T22:35:59.966Z,101354.91
2018-09-02T22:38:28.238Z,101356.48
2018-09-02T22:40:56.574Z,101355.52
2018-09-02T22:43:24.771Z,101357.03
2018-09-02T22:45:52.973Z,101356.91
2018-09-02T22:48:21.218Z,101357.38
2018-09-02T22:50:49.434Z,101348.60
2018-09-02T22:53:17.644Z,101349.55
2018-09-02T22:55:45.851Z,101342.72
2018-09-02T22:58:14.070Z,101343.22
2018-09-02T23:00:42.285Z,101336.83
2018-09-02T23:03:10.510Z,101330.13
2018-09-02T23:05:38.709Z,101328.81
2018-09-02T23:08:06.929Z,101329.38
2018-09-02T23:10:35.145Z,101327.66
2018-09-02T23:13:03.357Z,101322.86
2018-09-02T23:15:31.569Z,101324.10
2018-09-02T23:17:59.799Z,101332.56
2018-09-02T23:20:28.018Z,101323.00
2018-09-02T23:22:56.250Z,101327.97
2018-09-02T23:25:24.486Z,101325.13
2018-09-02T23:27:52.688Z,101323.27
2018-09-02T23:30:20.901Z,101323.42
2018-09-02T23:32:49.111Z,101320.92
2018-09-02T23:35:17.310Z,101313.00
2018-09-02T23:37:45.518Z,101308.79
2018-09-02T23:40:13.746Z,101303.42
2018-09-02T23:42:41.946Z,101299.67
2018-09-02T23:45:10.158Z,101294.77
2018-09-02T23:47:38.362Z,101286.87
2018-09-02T23:50:06.657Z,101290.52
2018-09-02T23:52:34.859Z,101286.42
2018-09-02T23:55:03.097Z,101275.73
2018-09-02T23:57:31.308Z,101275.37
2018-09-02T23:59:59.546Z,101271.36
